Map

Track Data

SID SEASON NUMBER BASIN SUBBASIN NAME ISO_TIME NATURE LAT LON WMO_WIND WMO_PRES WMO_AGENCY TRACK_TYPE DIST2LAND LANDFALL IFLAG USA_AGENCY USA_ATCF_ID USA_LAT USA_LON USA_RECORD USA_STATUS USA_WIND USA_PRES USA_SSHS USA_R34_NE USA_R34_SE USA_R34_SW USA_R34_NW USA_R50_NE USA_R50_SE USA_R50_SW USA_R50_NW USA_R64_NE USA_R64_SE USA_R64_SW USA_R64_NW USA_POCI USA_ROCI USA_RMW USA_EYE TOKYO_LAT TOKYO_LON TOKYO_GRADE TOKYO_WIND TOKYO_PRES TOKYO_R50_DIR TOKYO_R50_LONG TOKYO_R50_SHORT TOKYO_R30_DIR TOKYO_R30_LONG TOKYO_R30_SHORT TOKYO_LAND CMA_LAT CMA_LON CMA_CAT CMA_WIND CMA_PRES HKO_LAT HKO_LON HKO_CAT HKO_WIND HKO_PRES NEWDELHI_LAT NEWDELHI_LON NEWDELHI_GRADE NEWDELHI_WIND NEWDELHI_PRES NEWDELHI_CI NEWDELHI_DP NEWDELHI_POCI REUNION_LAT REUNION_LON REUNION_TYPE REUNION_WIND REUNION_PRES REUNION_TNUM REUNION_CI REUNION_RMW REUNION_R34_NE REUNION_R34_SE REUNION_R34_SW REUNION_R34_NW REUNION_R50_NE REUNION_R50_SE REUNION_R50_SW REUNION_R50_NW REUNION_R64_NE REUNION_R64_SE REUNION_R64_SW REUNION_R64_NW BOM_LAT BOM_LON BOM_TYPE BOM_WIND BOM_PRES BOM_TNUM BOM_CI BOM_RMW BOM_R34_NE BOM_R34_SE BOM_R34_SW BOM_R34_NW BOM_R50_NE BOM_R50_SE BOM_R50_SW BOM_R50_NW BOM_R64_NE BOM_R64_SE BOM_R64_SW BOM_R64_NW BOM_ROCI BOM_POCI BOM_EYE BOM_POS_METHOD BOM_PRES_METHOD NADI_LAT NADI_LON NADI_CAT NADI_WIND NADI_PRES WELLINGTON_LAT WELLINGTON_LON WELLINGTON_WIND WELLINGTON_PRES DS824_LAT DS824_LON DS824_STAGE DS824_WIND DS824_PRES TD9636_LAT TD9636_LON TD9636_STAGE TD9636_WIND TD9636_PRES TD9635_LAT TD9635_LON TD9635_WIND TD9635_PRES TD9635_ROCI NEUMANN_LAT NEUMANN_LON NEUMANN_CLASS NEUMANN_WIND NEUMANN_PRES MLC_LAT MLC_LON MLC_CLASS MLC_WIND MLC_PRES USA_GUST BOM_GUST BOM_GUST_PER REUNION_GUST REUNION_GUST_PER USA_SEAHGT USA_SEARAD_NE USA_SEARAD_SE USA_SEARAD_SW USA_SEARAD_NW STORM_SPEED STORM_DIR
1968269N19275 1968 97 NA CS NOT_NAMED 1968-09-25 00:00:00 TS 18.5000 -85.0000 hurdat_atl main 274 254 O_____________ hurdat_atl AL131968 18.5000 -85.0000 TD -1 15 360
1968269N19275 1968 97 NA CS NOT_NAMED 1968-09-25 03:00:00 TS 19.2274 -85.0120 main 254 212 P_____________ AL131968 19.2274 -85.0120 TD -1 14 4
1968269N19275 1968 97 NA CS NOT_NAMED 1968-09-25 06:00:00 TS 19.9000 -84.9000 hurdat_atl main 212 145 O_____________ hurdat_atl AL131968 19.9000 -84.9000 TD -1 13 17
1968269N19275 1968 97 NA CS NOT_NAMED 1968-09-25 09:00:00 TS 20.4802 -84.6006 main 145 91 P_____________ AL131968 20.4802 -84.6006 TD -1 12 27
1968269N19275 1968 97 NA CS NOT_NAMED 1968-09-25 12:00:00 TS 21.0000 -84.3000 hurdat_atl main 91 44 O_____________ hurdat_atl AL131968 21.0000 -84.3000 TD -1 11 19
1968269N19275 1968 97 NA CS NOT_NAMED 1968-09-25 15:00:00 TS 21.5149 -84.2121 main 44 0 P_____________ AL131968 21.5149 -84.2121 TD -1 10 6
1968269N19275 1968 97 NA NA NOT_NAMED 1968-09-25 18:00:00 TS 22.0000 -84.2000 hurdat_atl main 0 0 O_____________ hurdat_atl AL131968 22.0000 -84.2000 TD -1 9 0
1968269N19275 1968 97 NA NA NOT_NAMED 1968-09-25 21:00:00 TS 22.4347 -84.2240 main 0 0 P_____________ AL131968 22.4347 -84.2240 TD -1 9 5
1968269N19275 1968 97 NA GM NOT_NAMED 1968-09-26 00:00:00 TS 22.9000 -84.1000 hurdat_atl main 24 24 O_____________ hurdat_atl AL131968 22.9000 -84.1000 TD -1 12 28
1968269N19275 1968 97 NA GM NOT_NAMED 1968-09-26 03:00:00 TS 23.5005 -83.6111 main 70 70 P_____________ AL131968 23.5005 -83.6111 TD -1 16 40
1968269N19275 1968 97 NA GM NOT_NAMED 1968-09-26 06:00:00 TS 24.1000 -83.0000 hurdat_atl main 122 122 O_____________ hurdat_atl AL131968 24.1000 -83.0000 TD -1 15 42
1968269N19275 1968 97 NA GM NOT_NAMED 1968-09-26 09:00:00 TS 24.6023 -82.5272 main 147 93 P_____________ AL131968 24.6023 -82.5272 TD -1 12 42
1968269N19275 1968 97 NA GM NOT_NAMED 1968-09-26 12:00:00 TS 25.0000 -82.1000 hurdat_atl main 93 51 O_____________ hurdat_atl AL131968 25.0000 -82.1000 TD -1 10 47
1968269N19275 1968 97 NA GM NOT_NAMED 1968-09-26 15:00:00 TS 25.2795 -81.7218 main 51 10 P_____________ AL131968 25.2795 -81.7218 TD -1 9 55
1968269N19275 1968 97 NA GM NOT_NAMED 1968-09-26 18:00:00 TS 25.5000 -81.3000 hurdat_atl main 10 0 O_____________ hurdat_atl AL131968 25.5000 -81.3000 TD -1 11 63
1968269N19275 1968 97 NA NA NOT_NAMED 1968-09-26 21:00:00 TS 25.7657 -80.6630 main 0 0 P_____________ AL131968 25.7657 -80.6630 TD -1 12 65
1968269N19275 1968 97 NA NA NOT_NAMED 1968-09-27 00:00:00 TS 26.0000 -80.1000 hurdat_atl main 0 0 O_____________ hurdat_atl AL131968 26.0000 -80.1000 TD -1 8 61
1968269N19275 1968 97 NA NA NOT_NAMED 1968-09-27 03:00:00 TS 26.1419 -79.9192 main 19 19 P_____________ AL131968 26.1419 -79.9192 TD -1 4 42
1968269N19275 1968 97 NA NA NOT_NAMED 1968-09-27 06:00:00 TS 26.3000 -79.8000 hurdat_atl main 29 29 O_____________ hurdat_atl AL131968 26.3000 -79.8000 TD -1 7 44
1968269N19275 1968 97 NA NA NOT_NAMED 1968-09-27 09:00:00 TS 26.6078 -79.4156 main 63 63 P_____________ AL131968 26.6078 -79.4156 TD -1 9 50
1968269N19275 1968 97 NA NA NOT_NAMED 1968-09-27 12:00:00 TS 26.9000 -79.0000 hurdat_atl main 99 99 O_____________ hurdat_atl AL131968 26.9000 -79.0000 TD -1 7 53
1968269N19275 1968 97 NA NA NOT_NAMED 1968-09-27 15:00:00 TS 27.0217 -78.7943 main 120 120 P_____________ AL131968 27.0217 -78.7943 TD -1 5 66
1968269N19275 1968 97 NA NA NOT_NAMED 1968-09-27 18:00:00 TS 27.1000 -78.5000 hurdat_atl main 152 152 O_____________ hurdat_atl AL131968 27.1000 -78.5000 TD -1 9 75
1968269N19275 1968 97 NA NA NOT_NAMED 1968-09-27 21:00:00 TS 27.2587 -77.8081 main 224 224 P_____________ AL131968 27.2587 -77.8081 TD -1 13 76
1968269N19275 1968 97 NA NA NOT_NAMED 1968-09-28 00:00:00 TS 27.4000 -77.1000 hurdat_atl main 272 272 O_____________ hurdat_atl AL131968 27.4000 -77.1000 TD -1 9 77
1968269N19275 1968 97 NA NA NOT_NAMED 1968-09-28 03:00:00 TS 27.4641 -76.7771 main 293 293 P_____________ AL131968 27.4641 -76.7771 TD -1 5 79
1968269N19275 1968 97 NA NA NOT_NAMED 1968-09-28 06:00:00 TS 27.5000 -76.5000 hurdat_atl main 306 306 O_____________ hurdat_atl AL131968 27.5000 -76.5000 TD -1 8 84
1968269N19275 1968 97 NA NA NOT_NAMED 1968-09-28 09:00:00 TS 27.5431 -75.9350 main 339 339 P_____________ AL131968 27.5431 -75.9350 TD -1 10 84
1968269N19275 1968 97 NA NA NOT_NAMED 1968-09-28 12:00:00 TS 27.6000 -75.4000 hurdat_atl main 380 380 O_____________ hurdat_atl AL131968 27.6000 -75.4000 TD -1 7 77
1968269N19275 1968 97 NA NA NOT_NAMED 1968-09-28 15:00:00 TS 27.6993 -75.1999 main 402 402 P_____________ AL131968 27.6993 -75.1999 TD -1 4 61
1968269N19275 1968 97 NA NA NOT_NAMED 1968-09-28 18:00:00 TS 27.8000 -75.0000 hurdat_atl main 424 424 O_____________ hurdat_atl AL131968 27.8000 -75.0000 TD -1 6 74
1968269N19275 1968 97 NA NA NOT_NAMED 1968-09-28 21:00:00 TS 27.8645 -74.5550 main 460 460 P_____________ AL131968 27.8645 -74.5550 TD -1 10 84
1968269N19275 1968 97 NA NA NOT_NAMED 1968-09-29 00:00:00 TS 27.9000 -73.9000 hurdat_atl main 513 513 O_____________ hurdat_atl AL131968 27.9000 -73.9000 TD -1 13 88
1968269N19275 1968 97 NA NA NOT_NAMED 1968-09-29 03:00:00 TS 27.9091 -73.0524 main 578 578 P_____________ AL131968 27.9091 -73.0524 TD -1 16 90
1968269N19275 1968 97 NA NA NOT_NAMED 1968-09-29 06:00:00 TS 27.9000 -72.1000 hurdat_atl main 664 O_____________ hurdat_atl AL131968 27.9000 -72.1000 TD -1 17 91

About IBTrACS Database

This database is a web-friendly format of International Best Track Archive for Climate Stewardship (IBTrACS), a global best track data archive curated by NOAA dating back to 1842.

Updated: 2021-12-08